createdAt,value
2018-03-26T00:00:18.772Z,4.63
2018-03-26T00:01:28.441Z,4.6
2018-03-26T00:02:38.794Z,4.6
2018-03-26T00:03:48.677Z,4.7
2018-03-26T00:04:58.550Z,4.75
2018-03-26T00:06:08.266Z,4.8
2018-03-26T00:07:17.940Z,4.73
2018-03-26T00:08:27.473Z,4.77
2018-03-26T00:09:37.714Z,4.71
2018-03-26T00:10:46.980Z,4.75
2018-03-26T00:11:57.009Z,4.7
2018-03-26T00:13:06.890Z,4.74
2018-03-26T00:14:17.120Z,4.71
2018-03-26T00:15:26.999Z,4.81
2018-03-26T00:16:36.881Z,4.71
2018-03-26T00:17:46.438Z,4.73
2018-03-26T00:18:56.629Z,4.73
2018-03-26T00:20:06.524Z,4.74
2018-03-26T00:21:16.043Z,4.83
2018-03-26T00:22:25.698Z,4.83
2018-03-26T00:23:35.705Z,4.8
2018-03-26T00:24:45.842Z,4.85
2018-03-26T00:25:55.752Z,4.83
2018-03-26T00:27:05.889Z,4.9
2018-03-26T00:28:16.159Z,4.93
2018-03-26T00:29:26.285Z,4.93
2018-03-26T00:30:36.156Z,4.99
2018-03-26T00:31:45.503Z,4.99
2018-03-26T00:32:55.621Z,5.03
2018-03-26T00:34:05.601Z,5.03
2018-03-26T00:35:15.804Z,4.98
2018-03-26T00:36:25.701Z,5.04
2018-03-26T00:37:35.472Z,4.99
2018-03-26T00:38:45.481Z,5.03
2018-03-26T00:39:55.494Z,4.92
2018-03-26T00:41:05.641Z,4.95
2018-03-26T00:42:15.511Z,4.95
2018-03-26T00:43:25.653Z,5
2018-03-26T00:44:35.812Z,5.1
2018-03-26T00:45:45.968Z,5.22
2018-03-26T00:46:56.254Z,5.22
2018-03-26T00:48:06.423Z,5.31
2018-03-26T00:49:16.277Z,5.31
2018-03-26T00:50:26.431Z,5.18
2018-03-26T00:51:36.588Z,5.28
2018-03-26T00:52:46.710Z,5.28
2018-03-26T00:53:56.936Z,5.33
2018-03-26T00:55:07.090Z,5.35
2018-03-26T00:56:17.277Z,5.35
2018-03-26T00:57:27.447Z,5.31
2018-03-26T00:58:37.541Z,5.35
2018-03-26T00:59:47.918Z,5.28
2018-03-26T01:00:57.990Z,5.24
2018-03-26T01:02:08.139Z,5.25
2018-03-26T01:03:18.299Z,5.22
2018-03-26T01:04:29.394Z,5.16
2018-03-26T01:05:39.643Z,5.21
2018-03-26T01:06:49.613Z,5.17
2018-03-26T01:07:59.744Z,5.22
2018-03-26T01:09:09.943Z,5.18
2018-03-26T01:10:20.077Z,5.18
2018-03-26T01:11:30.244Z,5.17
2018-03-26T01:12:40.187Z,5.11
2018-03-26T01:13:50.362Z,5.11
2018-03-26T01:15:00.502Z,5.07
2018-03-26T01:16:10.695Z,5.08
2018-03-26T01:17:20.561Z,5.04
2018-03-26T01:18:30.332Z,5.06
2018-03-26T01:19:40.102Z,5.04
2018-03-26T01:20:50.203Z,5.03
2018-03-26T01:22:00.083Z,5.08
2018-03-26T01:23:09.837Z,5.14
2018-03-26T01:24:19.976Z,5.13
2018-03-26T01:25:30.104Z,5.1
2018-03-26T01:26:40.231Z,5.07
2018-03-26T01:27:50.418Z,5.1
2018-03-26T01:29:00.388Z,5.08
2018-03-26T01:30:10.180Z,5.1
2018-03-26T01:31:20.270Z,5.17
2018-03-26T01:32:30.187Z,5.18
2018-03-26T01:33:40.338Z,5.14
2018-03-26T01:34:50.252Z,5.17
2018-03-26T01:36:00.165Z,5.18
2018-03-26T01:37:10.292Z,5.13
2018-03-26T01:38:20.445Z,5.14
2018-03-26T01:39:30.696Z,5.11
2018-03-26T01:40:40.903Z,5.08
2018-03-26T01:41:50.853Z,5.08
2018-03-26T01:43:00.995Z,5.16
2018-03-26T01:44:11.226Z,5.16
2018-03-26T01:45:21.114Z,5.17
2018-03-26T01:46:30.905Z,5.11
2018-03-26T01:47:41.088Z,5.18
2018-03-26T01:48:50.979Z,5.17
2018-03-26T01:50:00.898Z,5.11
2018-03-26T01:51:11.073Z,5.11
2018-03-26T01:52:20.939Z,5.11
2018-03-26T01:53:30.873Z,5.1
2018-03-26T01:54:40.475Z,5.11
2018-03-26T01:55:50.607Z,5.11
2018-03-26T01:57:00.634Z,5.11
2018-03-26T01:58:10.517Z,5.16
2018-03-26T01:59:20.656Z,5.16
2018-03-26T02:00:30.570Z,5.16
2018-03-26T02:01:40.721Z,5.11
2018-03-26T02:02:50.354Z,5.13
2018-03-26T02:04:00.451Z,5.14
2018-03-26T02:05:10.413Z,5.17
2018-03-26T02:06:20.432Z,5.16
2018-03-26T02:07:30.709Z,5.22
2018-03-26T02:08:40.599Z,5.17
2018-03-26T02:09:50.791Z,5.16
2018-03-26T02:11:00.911Z,5.18
2018-03-26T02:12:11.201Z,5.11
2018-03-26T02:13:21.354Z,5.16
2018-03-26T02:14:31.501Z,5.16
2018-03-26T02:15:41.392Z,5.14
2018-03-26T02:16:51.580Z,5.08
2018-03-26T02:18:01.802Z,5.1
2018-03-26T02:19:11.590Z,5.1
2018-03-26T02:20:21.365Z,5.14
2018-03-26T02:21:31.174Z,5.21
2018-03-26T02:22:41.291Z,5.24
2018-03-26T02:23:51.309Z,5.17
2018-03-26T02:25:01.531Z,5.18
2018-03-26T02:26:11.706Z,5.22
2018-03-26T02:27:21.466Z,5.31
2018-03-26T02:28:31.623Z,5.17
2018-03-26T02:29:41.760Z,5.22
2018-03-26T02:30:51.894Z,5.17
2018-03-26T02:32:01.411Z,5.32
2018-03-26T02:33:11.570Z,5.24
2018-03-26T02:34:22.693Z,5.31
2018-03-26T02:35:32.603Z,5.21
2018-03-26T02:36:42.486Z,5.32
2018-03-26T02:37:52.643Z,5.32
2018-03-26T02:39:02.852Z,5.31
2018-03-26T02:40:12.733Z,5.33
2018-03-26T02:41:22.603Z,5.25
2018-03-26T02:42:32.846Z,5.24
2018-03-26T02:43:42.491Z,5.25
2018-03-26T02:44:52.612Z,5.31
2018-03-26T02:46:02.385Z,5.24
2018-03-26T02:47:12.437Z,5.18
2018-03-26T02:48:22.573Z,5.28
2018-03-26T02:49:32.512Z,5.31
2018-03-26T02:50:42.412Z,5.22
2018-03-26T02:51:52.734Z,5.25
2018-03-26T02:53:02.641Z,5.18
2018-03-26T02:54:12.536Z,5.28
2018-03-26T02:55:22.493Z,5.22
2018-03-26T02:56:32.211Z,5.21
2018-03-26T02:57:42.226Z,5.18
2018-03-26T02:58:52.361Z,5.29
2018-03-26T03:00:02.504Z,5.18
2018-03-26T03:01:12.652Z,5.21
2018-03-26T03:02:22.377Z,5.18
2018-03-26T03:03:32.504Z,5.16
2018-03-26T03:04:42.741Z,5.18
2018-03-26T03:05:52.971Z,5.21
2018-03-26T03:07:03.130Z,5.16
2018-03-26T03:08:13.374Z,5.18
2018-03-26T03:09:23.618Z,5.18
2018-03-26T03:10:33.945Z,5.22
2018-03-26T03:11:43.950Z,5.18
2018-03-26T03:12:54.077Z,5.11
2018-03-26T03:14:04.290Z,5.1
2018-03-26T03:15:14.431Z,5.11
2018-03-26T03:16:24.685Z,5.07
2018-03-26T03:17:34.816Z,5.14
2018-03-26T03:18:45.196Z,5.1
2018-03-26T03:19:54.977Z,5.07
2018-03-26T03:21:05.077Z,5.1
2018-03-26T03:22:15.222Z,5.1
2018-03-26T03:23:25.373Z,5.03
2018-03-26T03:24:35.564Z,5.04
2018-03-26T03:25:45.786Z,5.04
2018-03-26T03:26:56.071Z,5.08
2018-03-26T03:28:06.344Z,5.04
2018-03-26T03:29:16.601Z,4.99
2018-03-26T03:30:26.482Z,4.99
2018-03-26T03:31:36.004Z,5.04
2018-03-26T03:32:46.195Z,5.04
2018-03-26T03:33:56.377Z,5.06
2018-03-26T03:35:06.526Z,5.03
2018-03-26T03:36:17.642Z,4.99
2018-03-26T03:37:27.766Z,5.07
2018-03-26T03:38:37.902Z,5
2018-03-26T03:39:47.149Z,5.07
2018-03-26T03:40:56.785Z,5.04
2018-03-26T03:42:06.954Z,5
2018-03-26T03:43:17.135Z,5.04
2018-03-26T03:44:27.402Z,5.08
2018-03-26T03:45:37.572Z,5.04
2018-03-26T03:46:47.726Z,5.1
2018-03-26T03:47:57.887Z,5.08
2018-03-26T03:49:08.032Z,5.07
2018-03-26T03:50:17.640Z,5.04
2018-03-26T03:51:27.818Z,5.07
2018-03-26T03:52:37.696Z,5.06
2018-03-26T03:53:47.451Z,5.03
2018-03-26T03:54:57.578Z,5.06
2018-03-26T03:56:07.732Z,5.04
2018-03-26T03:57:17.254Z,5
2018-03-26T03:58:27.138Z,5.04
2018-03-26T03:59:37.367Z,5.1
2018-03-26T04:00:46.954Z,5.04
2018-03-26T04:01:57.151Z,5.08
2018-03-26T04:03:07.090Z,5.1
2018-03-26T04:04:16.942Z,5.11
2018-03-26T04:05:27.069Z,5.11
2018-03-26T04:06:36.734Z,5.1
2018-03-26T04:07:46.940Z,5.18
2018-03-26T04:08:57.104Z,5.11
2018-03-26T04:10:07.220Z,5.14
2018-03-26T04:11:17.103Z,5.18
2018-03-26T04:12:27.031Z,5.11
2018-03-26T04:13:37.262Z,5.21
2018-03-26T04:14:47.126Z,5.13
2018-03-26T04:15:57.014Z,5.14
2018-03-26T04:17:06.886Z,5.18
2018-03-26T04:18:16.479Z,5.17
2018-03-26T04:19:26.689Z,5.13
2018-03-26T04:20:36.568Z,5.16
2018-03-26T04:21:46.741Z,5.13
2018-03-26T04:22:56.940Z,5.13
2018-03-26T04:24:07.162Z,5.14
2018-03-26T04:25:17.371Z,5.11
2018-03-26T04:26:27.149Z,5.18
2018-03-26T04:27:37.058Z,5.21
2018-03-26T04:28:46.820Z,5.21
2018-03-26T04:29:56.934Z,5.18
2018-03-26T04:31:06.549Z,5.25
2018-03-26T04:32:16.848Z,5.21
2018-03-26T04:33:26.992Z,5.16
2018-03-26T04:34:36.799Z,5.22
2018-03-26T04:35:46.663Z,5.22
2018-03-26T04:36:56.583Z,5.16
2018-03-26T04:38:06.756Z,5.16
2018-03-26T04:39:16.386Z,5.22
2018-03-26T04:40:26.406Z,5.28
2018-03-26T04:41:36.279Z,5.22
2018-03-26T04:42:46.500Z,5.16
2018-03-26T04:43:56.647Z,5.16
2018-03-26T04:45:06.802Z,5.18
2018-03-26T04:46:16.952Z,5.33
2018-03-26T04:47:26.375Z,5.28
2018-03-26T04:48:36.228Z,5.18
2018-03-26T04:49:46.350Z,5.18
2018-03-26T04:50:56.225Z,5.14
2018-03-26T04:52:06.380Z,5.28
2018-03-26T04:53:16.300Z,5.22
2018-03-26T04:54:26.212Z,5.21
2018-03-26T04:55:36.347Z,5.25
2018-03-26T04:56:46.554Z,5.25
2018-03-26T04:57:56.497Z,5.29
2018-03-26T04:59:06.622Z,5.21
2018-03-26T05:00:16.425Z,5.24
2018-03-26T05:01:26.562Z,5.31
2018-03-26T05:02:36.430Z,5.29
2018-03-26T05:03:46.566Z,5.21
2018-03-26T05:04:56.738Z,5.16
2018-03-26T05:06:06.739Z,5.22
2018-03-26T05:07:16.809Z,5.31
2018-03-26T05:08:26.934Z,5.28
2018-03-26T05:09:36.718Z,5.28
2018-03-26T05:10:46.990Z,5.28
2018-03-26T05:11:56.487Z,5.32
2018-03-26T05:13:06.453Z,5.32
2018-03-26T05:14:16.593Z,5.26
2018-03-26T05:15:26.800Z,5.26
2018-03-26T05:16:36.556Z,5.28
2018-03-26T05:17:46.426Z,5.28
2018-03-26T05:18:56.559Z,5.26
2018-03-26T05:20:06.667Z,5.18
2018-03-26T05:21:16.419Z,5.29
2018-03-26T05:22:26.628Z,5.18
2018-03-26T05:23:36.420Z,5.24
2018-03-26T05:24:45.975Z,5.28
2018-03-26T05:25:56.287Z,5.33
2018-03-26T05:27:06.538Z,5.24
2018-03-26T05:28:16.770Z,5.26
2018-03-26T05:29:26.978Z,5.35
2018-03-26T05:30:37.215Z,5.32
2018-03-26T05:31:47.375Z,5.16
2018-03-26T05:32:57.574Z,5.29
2018-03-26T05:34:07.187Z,5.32
2018-03-26T05:35:17.092Z,5.26
2018-03-26T05:36:27.017Z,5.29
2018-03-26T05:37:37.155Z,5.32
2018-03-26T05:38:46.669Z,5.32
2018-03-26T05:39:56.962Z,5.31
2018-03-26T05:41:07.162Z,5.33
2018-03-26T05:42:17.104Z,5.32
2018-03-26T05:43:27.268Z,5.32
2018-03-26T05:44:37.391Z,5.33
2018-03-26T05:45:47.611Z,5.35
2018-03-26T05:46:57.798Z,5.29
2018-03-26T05:48:07.960Z,5.28
2018-03-26T05:49:18.102Z,5.31
2018-03-26T05:50:27.980Z,5.4
2018-03-26T05:51:37.851Z,5.35
2018-03-26T05:52:48.029Z,5.31
2018-03-26T05:53:58.148Z,5.28
2018-03-26T05:55:08.289Z,5.28
2018-03-26T05:56:18.484Z,5.28
2018-03-26T05:57:28.619Z,5.29
2018-03-26T05:58:38.679Z,5.31
2018-03-26T05:59:48.534Z,5.21
2018-03-26T06:00:58.667Z,5.32
2018-03-26T06:02:08.909Z,5.29
2018-03-26T06:03:19.117Z,5.29
2018-03-26T06:04:28.988Z,5.17
2018-03-26T06:05:39.148Z,5.28
2018-03-26T06:06:48.966Z,5.28
2018-03-26T06:07:59.096Z,5.31
2018-03-26T06:09:09.076Z,5.29
2018-03-26T06:10:19.304Z,5.28
2018-03-26T06:11:29.500Z,5.24
2018-03-26T06:12:39.400Z,5.28
2018-03-26T06:13:49.266Z,5.24
2018-03-26T06:14:59.414Z,5.31
2018-03-26T06:16:09.086Z,5.24
2018-03-26T06:17:19.261Z,5.25
2018-03-26T06:18:29.141Z,5.21
2018-03-26T06:19:39.071Z,5.22
2018-03-26T06:20:49.229Z,5.24
2018-03-26T06:21:59.397Z,5.28
2018-03-26T06:23:09.153Z,5.24
2018-03-26T06:24:19.287Z,5.33
2018-03-26T06:25:29.413Z,5.33
2018-03-26T06:26:39.646Z,5.29
2018-03-26T06:27:50.062Z,5.24
2018-03-26T06:29:00.177Z,5.25
2018-03-26T06:30:10.167Z,5.29
2018-03-26T06:31:19.935Z,5.24
2018-03-26T06:32:30.094Z,5.31
2018-03-26T06:33:40.332Z,5.29
2018-03-26T06:34:50.219Z,5.28
2018-03-26T06:36:00.129Z,5.25
2018-03-26T06:37:09.393Z,5.29
2018-03-26T06:38:19.831Z,5.25
2018-03-26T06:39:29.971Z,5.32
2018-03-26T06:40:40.193Z,5.26
2018-03-26T06:41:50.426Z,5.18
2018-03-26T06:43:00.657Z,5.32
2018-03-26T06:44:10.916Z,5.32
2018-03-26T06:45:21.191Z,5.25
2018-03-26T06:46:31.393Z,5.26
2018-03-26T06:47:41.532Z,5.29
2018-03-26T06:48:51.699Z,5.31
2018-03-26T06:50:01.952Z,5.31
2018-03-26T06:51:12.137Z,5.26
2018-03-26T06:52:23.407Z,5.36
2018-03-26T06:53:33.315Z,5.32
2018-03-26T06:54:43.469Z,5.35
2018-03-26T06:55:52.818Z,5.24
2018-03-26T06:57:02.942Z,5.28
2018-03-26T06:58:13.121Z,5.26
2018-03-26T06:59:23.358Z,5.32
2018-03-26T07:00:33.533Z,5.32
2018-03-26T07:01:43.708Z,5.28
2018-03-26T07:02:53.578Z,5.31
2018-03-26T07:04:03.744Z,5.32
2018-03-26T07:05:13.897Z,5.28
2018-03-26T07:06:23.834Z,5.28
2018-03-26T07:07:33.977Z,5.46
2018-03-26T07:08:44.127Z,5.38
2018-03-26T07:09:53.976Z,5.41
2018-03-26T07:11:04.112Z,5.43
2018-03-26T07:12:14.318Z,5.43
2018-03-26T07:13:23.944Z,5.41
2018-03-26T07:14:33.481Z,5.41
2018-03-26T07:15:43.655Z,5.38
2018-03-26T07:16:53.817Z,5.38
2018-03-26T07:18:03.991Z,5.41
2018-03-26T07:19:13.790Z,5.38
2018-03-26T07:20:23.909Z,5.4
2018-03-26T07:21:33.444Z,5.44
2018-03-26T07:22:43.776Z,5.44
2018-03-26T07:23:53.943Z,5.51
2018-03-26T07:25:04.273Z,5.54
2018-03-26T07:26:14.237Z,5.59
2018-03-26T07:27:24.358Z,5.56
2018-03-26T07:28:34.563Z,5.53
2018-03-26T07:29:44.713Z,5.54
2018-03-26T07:30:54.872Z,5.56
2018-03-26T07:32:04.746Z,5.58
2018-03-26T07:33:14.904Z,5.59
2018-03-26T07:34:25.072Z,5.64
2018-03-26T07:35:34.702Z,5.67
2018-03-26T07:36:44.828Z,5.71
2018-03-26T07:37:54.615Z,5.69
2018-03-26T07:39:04.740Z,5.71
2018-03-26T07:40:14.876Z,5.74
2018-03-26T07:41:25.085Z,5.72
2018-03-26T07:42:34.747Z,5.8
2018-03-26T07:43:44.398Z,5.77
2018-03-26T07:44:54.551Z,5.84
2018-03-26T07:46:04.806Z,5.8
2018-03-26T07:47:14.726Z,5.8
2018-03-26T07:48:24.805Z,5.84
2018-03-26T07:49:35.065Z,5.93
2018-03-26T07:50:45.331Z,5.86
2018-03-26T07:51:55.602Z,5.75
2018-03-26T07:53:05.706Z,5.9
2018-03-26T07:54:15.938Z,5.79
2018-03-26T07:55:26.159Z,5.88
2018-03-26T07:56:36.352Z,5.93
2018-03-26T07:57:46.635Z,5.9
2018-03-26T07:58:56.876Z,5.93
2018-03-26T08:00:07.161Z,5.93
2018-03-26T08:01:17.076Z,6.02
2018-03-26T08:02:26.984Z,5.96
2018-03-26T08:03:36.612Z,6.02
2018-03-26T08:04:46.795Z,5.93
2018-03-26T08:05:56.967Z,6.06
2018-03-26T08:07:07.106Z,6.05
2018-03-26T08:08:17.233Z,6.05
2018-03-26T08:09:27.120Z,6.12
2018-03-26T08:10:37.260Z,6.14
2018-03-26T08:11:47.438Z,6.11
2018-03-26T08:12:56.708Z,6.14
2018-03-26T08:14:06.885Z,6.19
2018-03-26T08:15:16.666Z,6.17
2018-03-26T08:16:26.849Z,6.17
2018-03-26T08:17:36.662Z,6.16
2018-03-26T08:18:46.805Z,6.26
2018-03-26T08:19:56.718Z,6.3
2018-03-26T08:21:06.855Z,6.26
2018-03-26T08:22:16.994Z,6.27
2018-03-26T08:23:26.646Z,6.34
2018-03-26T08:24:36.418Z,6.36
2018-03-26T08:25:46.214Z,6.34
2018-03-26T08:26:56.111Z,6.38
2018-03-26T08:28:06.520Z,6.46
2018-03-26T08:29:16.402Z,6.41
2018-03-26T08:30:26.563Z,6.48
2018-03-26T08:31:36.798Z,6.44
2018-03-26T08:32:47.023Z,6.41
2018-03-26T08:33:56.607Z,6.44
2018-03-26T08:35:07.006Z,6.54
2018-03-26T08:36:17.182Z,6.41
2018-03-26T08:37:27.074Z,6.38
2018-03-26T08:38:37.204Z,6.41
2018-03-26T08:39:47.325Z,6.45
2018-03-26T08:40:57.450Z,6.39
2018-03-26T08:42:07.648Z,6.44
2018-03-26T08:43:18.067Z,6.42
2018-03-26T08:44:27.962Z,6.42
2018-03-26T08:45:37.883Z,6.49
2018-03-26T08:46:47.826Z,6.54
2018-03-26T08:47:57.699Z,6.48
2018-03-26T08:49:07.612Z,6.48
2018-03-26T08:50:18.198Z,6.54
2018-03-26T08:51:28.477Z,6.49
2018-03-26T08:52:38.368Z,6.59
2018-03-26T08:53:48.628Z,6.66
2018-03-26T08:54:58.800Z,6.67
2018-03-26T08:56:08.685Z,6.77
2018-03-26T08:57:18.859Z,6.69
2018-03-26T08:58:28.817Z,6.82
2018-03-26T08:59:38.746Z,6.74
2018-03-26T09:00:48.720Z,6.85
2018-03-26T09:01:59.046Z,6.84
2018-03-26T09:03:09.270Z,6.84
2018-03-26T09:04:19.315Z,6.92
2018-03-26T09:05:29.502Z,6.85
2018-03-26T09:06:39.695Z,6.92
2018-03-26T09:07:49.632Z,6.92
2018-03-26T09:08:59.865Z,6.92
2018-03-26T09:10:09.848Z,6.95
2018-03-26T09:11:19.986Z,6.99
2018-03-26T09:12:30.131Z,6.92
2018-03-26T09:13:39.902Z,6.95
2018-03-26T09:14:50.086Z,7.03
2018-03-26T09:15:59.978Z,7.15
2018-03-26T09:17:09.319Z,7.2
2018-03-26T09:18:19.530Z,7.15
2018-03-26T09:19:29.558Z,7.21
2018-03-26T09:20:39.769Z,7.58
2018-03-26T09:21:49.967Z,7.8
2018-03-26T09:23:00.158Z,7.98
2018-03-26T09:24:09.812Z,8.27
2018-03-26T09:25:20.105Z,8.55
2018-03-26T09:26:29.996Z,8.58
2018-03-26T09:27:39.876Z,8.61
2018-03-26T09:28:49.755Z,8.74
2018-03-26T09:29:59.310Z,8.93
2018-03-26T09:31:09.486Z,9
2018-03-26T09:32:19.642Z,9.12
2018-03-26T09:33:29.452Z,9.4
2018-03-26T09:34:39.589Z,9.62
2018-03-26T09:35:49.497Z,9.84
2018-03-26T09:36:59.453Z,10.05
2018-03-26T09:38:09.330Z,10.21
2018-03-26T09:39:19.538Z,10.33
2018-03-26T09:40:29.495Z,10.52
2018-03-26T09:41:39.763Z,10.61
2018-03-26T09:42:50.050Z,10.72
2018-03-26T09:43:59.982Z,11.08
2018-03-26T09:45:09.866Z,10.97
2018-03-26T09:46:19.840Z,10.94
2018-03-26T09:47:30.007Z,11.09
2018-03-26T09:48:40.227Z,10.9
2018-03-26T09:49:50.382Z,10.85
2018-03-26T09:51:00.583Z,11.13
2018-03-26T09:52:10.818Z,11.25
2018-03-26T09:53:21.099Z,11.17
2018-03-26T09:54:31.451Z,11
2018-03-26T09:55:41.596Z,11.48
2018-03-26T09:56:51.517Z,11.86
2018-03-26T09:58:01.143Z,12.02
2018-03-26T09:59:11.097Z,12.22
2018-03-26T10:00:20.998Z,12.42
2018-03-26T10:01:30.904Z,12.71
2018-03-26T10:02:40.865Z,13.13
2018-03-26T10:03:51.010Z,13.31
2018-03-26T10:05:02.389Z,13.41
2018-03-26T10:06:12.313Z,13.59
2018-03-26T10:07:22.556Z,13.54
2018-03-26T10:08:32.452Z,13.52
2018-03-26T10:09:42.728Z,13.66
2018-03-26T10:10:52.892Z,13.7
2018-03-26T10:12:03.079Z,13.99
2018-03-26T10:13:13.303Z,14.29
2018-03-26T10:14:23.509Z,14.6
2018-03-26T10:15:33.723Z,14.84
2018-03-26T10:16:43.876Z,14.75
2018-03-26T10:17:54.180Z,14.9
2018-03-26T10:19:05.523Z,14.99
2018-03-26T10:20:17.301Z,14.98
2018-03-26T10:21:27.102Z,14.74
2018-03-26T10:22:37.275Z,14.83
2018-03-26T10:23:47.451Z,14.83
2018-03-26T10:24:57.616Z,14.96
2018-03-26T10:26:07.811Z,14.85
2018-03-26T10:27:17.997Z,14.69
2018-03-26T10:28:28.251Z,14.67
2018-03-26T10:29:38.445Z,14.36
2018-03-26T10:30:48.606Z,14.29
2018-03-26T10:31:58.824Z,14.52
2018-03-26T10:33:09.079Z,14.62
2018-03-26T10:34:19.288Z,14.58
2018-03-26T10:35:29.477Z,14.59
2018-03-26T10:36:39.659Z,14.59
2018-03-26T10:37:49.840Z,14.47
2018-03-26T10:39:00.050Z,14.58
2018-03-26T10:40:10.324Z,14.66
2018-03-26T10:41:20.206Z,14.91
2018-03-26T10:42:30.586Z,15.33
2018-03-26T10:43:40.768Z,15.91
2018-03-26T10:44:50.932Z,16.39
2018-03-26T10:46:02.076Z,16.66
2018-03-26T10:47:12.261Z,17.01
2018-03-26T10:48:22.441Z,17.28
2018-03-26T10:49:32.709Z,17.68
2018-03-26T10:50:42.897Z,18.07
2018-03-26T10:51:53.185Z,18.52
2018-03-26T10:53:03.385Z,18.97
2018-03-26T10:54:13.592Z,19.21
2018-03-26T10:55:23.823Z,19.37
2018-03-26T10:56:34.037Z,19.37
2018-03-26T10:57:44.271Z,19.3
2018-03-26T10:58:54.645Z,19.33
2018-03-26T11:00:04.844Z,18.98
2018-03-26T11:01:15.049Z,18.49
2018-03-26T11:02:25.062Z,18.1
2018-03-26T11:03:35.008Z,17.76
2018-03-26T11:04:45.200Z,17.21
2018-03-26T11:05:55.363Z,17.02
2018-03-26T11:07:05.565Z,16.9
2018-03-26T11:08:15.758Z,16.64
2018-03-26T11:09:25.666Z,16.54
2018-03-26T11:10:35.280Z,16.42
2018-03-26T11:11:45.436Z,16.07
2018-03-26T11:12:55.623Z,15.79
2018-03-26T11:14:05.798Z,15.5
2018-03-26T11:15:15.608Z,15.35
2018-03-26T11:16:25.284Z,15.32
2018-03-26T11:17:35.515Z,15.33
2018-03-26T11:18:45.433Z,15.2
2018-03-26T11:19:55.111Z,15.25
2018-03-26T11:21:05.288Z,15.39
2018-03-26T11:22:15.472Z,15.61
2018-03-26T11:23:25.162Z,15.76
2018-03-26T11:24:35.405Z,15.99
2018-03-26T11:25:45.664Z,16.17
2018-03-26T11:26:55.841Z,16.36
2018-03-26T11:28:06.225Z,16.56
2018-03-26T11:29:16.013Z,16.71
2018-03-26T11:30:25.937Z,16.91
2018-03-26T11:31:36.147Z,17.04
2018-03-26T11:32:47.035Z,17.17
2018-03-26T11:33:56.570Z,17.46
2018-03-26T11:35:06.370Z,17.68
2018-03-26T11:36:16.430Z,17.91
2018-03-26T11:37:27.180Z,18.04
2018-03-26T11:38:37.438Z,18.31
2018-03-26T11:39:47.316Z,18.42
2018-03-26T11:40:56.944Z,18.4
2018-03-26T11:42:07.216Z,18.28
2018-03-26T11:43:16.886Z,17.98
2018-03-26T11:44:27.030Z,17.61
2018-03-26T11:45:37.241Z,17.45
2018-03-26T11:46:47.401Z,17.5
2018-03-26T11:47:57.613Z,17.54
2018-03-26T11:49:07.778Z,17.52
2018-03-26T11:50:17.579Z,17.49
2018-03-26T11:51:27.767Z,17.62
2018-03-26T11:52:37.706Z,17.57
2018-03-26T11:53:48.264Z,17.35
2018-03-26T11:54:58.162Z,17.06
2018-03-26T11:56:08.556Z,16.59
2018-03-26T11:57:18.847Z,16.35
2018-03-26T11:58:29.021Z,15.89
2018-03-26T11:59:38.931Z,15.33
2018-03-26T12:00:48.844Z,15.05
2018-03-26T12:01:58.706Z,14.63
2018-03-26T12:03:08.934Z,14.24
2018-03-26T12:04:19.146Z,14.14
2018-03-26T12:05:29.336Z,14.03
2018-03-26T12:06:39.129Z,13.86
2018-03-26T12:07:49.291Z,13.61
2018-03-26T12:08:59.180Z,13.59
2018-03-26T12:10:09.356Z,13.54
2018-03-26T12:11:19.540Z,13.44
2018-03-26T12:12:29.445Z,13.34
2018-03-26T12:13:39.628Z,13.27
2018-03-26T12:14:49.838Z,13.19
2018-03-26T12:16:00.065Z,13.12
2018-03-26T12:17:10.350Z,13.11
2018-03-26T12:18:20.550Z,13.27
2018-03-26T12:19:30.725Z,13.4
2018-03-26T12:20:40.471Z,13.55
2018-03-26T12:21:50.641Z,13.61
2018-03-26T12:23:00.831Z,13.59
2018-03-26T12:24:11.029Z,13.58
2018-03-26T12:25:21.043Z,13.63
2018-03-26T12:26:31.272Z,13.66
2018-03-26T12:27:41.151Z,13.56
2018-03-26T12:28:51.358Z,13.48
2018-03-26T12:30:01.635Z,13.36
2018-03-26T12:31:11.831Z,13.26
2018-03-26T12:32:21.752Z,13.08
2018-03-26T12:33:31.650Z,12.95
2018-03-26T12:34:41.599Z,12.8
2018-03-26T12:35:51.782Z,12.63
2018-03-26T12:37:01.761Z,12.63
2018-03-26T12:38:11.978Z,12.57
2018-03-26T12:39:21.944Z,12.42
2018-03-26T12:40:31.817Z,12.42
2018-03-26T12:41:41.673Z,12.23
2018-03-26T12:42:51.343Z,12.24
2018-03-26T12:44:01.287Z,12.02
2018-03-26T12:45:11.509Z,12.08
2018-03-26T12:46:21.817Z,11.99
2018-03-26T12:47:32.007Z,12.04
2018-03-26T12:48:41.921Z,11.97
2018-03-26T12:49:51.914Z,11.83
2018-03-26T12:51:01.849Z,11.68
2018-03-26T12:52:11.509Z,11.46
2018-03-26T12:53:21.441Z,11.43
2018-03-26T12:54:31.662Z,11.43
2018-03-26T12:55:41.551Z,11.34
2018-03-26T12:56:51.737Z,11.27
2018-03-26T12:58:01.930Z,11.16
2018-03-26T12:59:11.877Z,11.2
2018-03-26T13:00:21.839Z,11.13
2018-03-26T13:01:32.053Z,11.09
2018-03-26T13:02:42.004Z,11.03
2018-03-26T13:03:52.250Z,11
2018-03-26T13:05:02.424Z,10.98
2018-03-26T13:06:12.618Z,10.94
2018-03-26T13:07:22.429Z,10.9
2018-03-26T13:08:32.688Z,10.92
2018-03-26T13:09:42.861Z,10.92
2018-03-26T13:10:53.129Z,11
2018-03-26T13:12:03.089Z,11.03
2018-03-26T13:13:13.361Z,11.03
2018-03-26T13:14:23.282Z,11.21
2018-03-26T13:15:33.505Z,11.38
2018-03-26T13:16:43.427Z,11.49
2018-03-26T13:17:53.657Z,11.58
2018-03-26T13:19:03.847Z,11.86
2018-03-26T13:20:14.160Z,11.97
2018-03-26T13:21:24.108Z,12.13
2018-03-26T13:22:34.286Z,12.37
2018-03-26T13:23:44.462Z,12.47
2018-03-26T13:24:54.415Z,12.55
2018-03-26T13:26:04.357Z,12.57
2018-03-26T13:27:14.579Z,12.66
2018-03-26T13:28:25.437Z,12.77
2018-03-26T13:29:35.359Z,12.82
2018-03-26T13:30:45.269Z,12.7
2018-03-26T13:31:55.209Z,12.75
2018-03-26T13:33:05.437Z,12.85
2018-03-26T13:34:15.472Z,12.71
2018-03-26T13:35:25.691Z,12.63
2018-03-26T13:36:35.898Z,12.55
2018-03-26T13:37:46.113Z,12.38
2018-03-26T13:38:56.328Z,12.31
2018-03-26T13:40:06.543Z,12.05
2018-03-26T13:41:16.843Z,11.89
2018-03-26T13:42:27.042Z,11.76
2018-03-26T13:43:37.272Z,11.65
2018-03-26T13:44:47.476Z,11.57
2018-03-26T13:45:57.671Z,11.42
2018-03-26T13:47:07.843Z,11.45
2018-03-26T13:48:18.110Z,11.34
2018-03-26T13:49:28.386Z,11.33
2018-03-26T13:50:38.598Z,11.25
2018-03-26T13:51:48.794Z,11.13
2018-03-26T13:52:59.029Z,11.16
2018-03-26T13:54:09.203Z,11.16
2018-03-26T13:55:19.471Z,11.31
2018-03-26T13:56:29.650Z,11.34
2018-03-26T13:57:39.844Z,11.23
2018-03-26T13:58:50.085Z,11.35
2018-03-26T14:00:00.417Z,11.33
2018-03-26T14:01:10.644Z,11.28
2018-03-26T14:02:20.838Z,11.33
2018-03-26T14:03:30.664Z,11.3
2018-03-26T14:04:40.821Z,11.33
2018-03-26T14:05:50.968Z,11.35
2018-03-26T14:07:01.133Z,11.4
2018-03-26T14:08:11.076Z,11.45
2018-03-26T14:09:21.209Z,11.33
2018-03-26T14:10:31.412Z,11.43
2018-03-26T14:11:41.749Z,11.46
2018-03-26T14:12:51.387Z,11.35
2018-03-26T14:14:01.058Z,11.38
2018-03-26T14:15:11.266Z,11.39
2018-03-26T14:16:21.191Z,11.38
2018-03-26T14:17:31.201Z,11.43
2018-03-26T14:18:41.466Z,11.43
2018-03-26T14:19:51.762Z,11.34
2018-03-26T14:21:01.934Z,11.28
2018-03-26T14:22:11.876Z,11.33
2018-03-26T14:23:22.050Z,11.21
2018-03-26T14:24:32.254Z,11.25
2018-03-26T14:25:42.475Z,11.1
2018-03-26T14:26:52.699Z,11.15
2018-03-26T14:28:02.873Z,10.98
2018-03-26T14:29:13.038Z,11.15
2018-03-26T14:30:23.212Z,11.06
2018-03-26T14:31:33.411Z,10.98
2018-03-26T14:32:43.630Z,10.92
2018-03-26T14:33:53.790Z,10.88
2018-03-26T14:35:03.972Z,10.8
2018-03-26T14:36:14.154Z,10.7
2018-03-26T14:37:24.136Z,10.67
2018-03-26T14:38:34.101Z,10.59
2018-03-26T14:39:44.029Z,10.59
2018-03-26T14:40:53.864Z,10.72
2018-03-26T14:42:03.781Z,10.75
2018-03-26T14:43:14.207Z,10.65
2018-03-26T14:44:24.487Z,10.59
2018-03-26T14:45:34.147Z,10.51
2018-03-26T14:46:44.053Z,10.54
2018-03-26T14:47:54.036Z,10.54
2018-03-26T14:49:04.259Z,10.5
2018-03-26T14:50:14.072Z,10.48
2018-03-26T14:51:23.916Z,10.4
2018-03-26T14:52:34.128Z,10.34
2018-03-26T14:53:43.876Z,10.39
2018-03-26T14:54:53.923Z,10.37
2018-03-26T14:56:04.135Z,10.24
2018-03-26T14:57:14.372Z,10.45
2018-03-26T14:58:24.315Z,10.21
2018-03-26T14:59:34.295Z,10.39
2018-03-26T15:00:44.237Z,10.34
2018-03-26T15:01:55.117Z,10.29
2018-03-26T15:03:05.318Z,10.29
2018-03-26T15:04:15.515Z,10.27
2018-03-26T15:05:25.720Z,10.32
2018-03-26T15:06:35.428Z,10.29
2018-03-26T15:07:45.629Z,10.36
2018-03-26T15:08:55.515Z,10.33
2018-03-26T15:10:05.889Z,10.21
2018-03-26T15:11:16.060Z,10.17
2018-03-26T15:12:26.240Z,10.19
2018-03-26T15:13:37.400Z,10.18
2018-03-26T15:14:47.210Z,10.22
2018-03-26T15:15:59.608Z,10.17
2018-03-26T15:17:09.819Z,10.17
2018-03-26T15:18:19.930Z,10.17
2018-03-26T15:19:30.241Z,10.17
2018-03-26T15:20:40.416Z,10.17
2018-03-26T15:21:50.657Z,10.18
2018-03-26T15:23:00.662Z,10.1
2018-03-26T15:24:10.892Z,10.11